sensor_id;sensor_type;location;lat;lon;timestamp;temperature;humidity
14008;DHT22;61651;45.508;12.232;2022-10-12T00:00:08;19.00;99.90
14008;DHT22;61651;45.508;12.232;2022-10-12T00:03:10;19.00;99.90
14008;DHT22;61651;45.508;12.232;2022-10-12T00:06:16;19.00;99.90
14008;DHT22;61651;45.508;12.232;2022-10-12T00:09:18;19.00;99.90
14008;DHT22;61651;45.508;12.232;2022-10-12T00:12:20;19.00;99.90
14008;DHT22;61651;45.508;12.232;2022-10-12T00:15:22;18.90;99.90
14008;DHT22;61651;45.508;12.232;2022-10-12T00:18:24;18.90;99.90
14008;DHT22;61651;45.508;12.232;2022-10-12T00:21:29;18.90;99.90
14008;DHT22;61651;45.508;12.232;2022-10-12T00:24:31;18.80;99.90
14008;DHT22;61651;45.508;12.232;2022-10-12T00:27:33;18.80;99.90
14008;DHT22;61651;45.508;12.232;2022-10-12T00:30:38;18.80;99.90
14008;DHT22;61651;45.508;12.232;2022-10-12T00:33:41;18.80;99.90
14008;DHT22;61651;45.508;12.232;2022-10-12T00:36:45;18.80;99.90
14008;DHT22;61651;45.508;12.232;2022-10-12T00:39:47;18.80;99.90
14008;DHT22;61651;45.508;12.232;2022-10-12T00:42:50;18.80;99.90
14008;DHT22;61651;45.508;12.232;2022-10-12T00:45:52;18.80;99.90
14008;DHT22;61651;45.508;12.232;2022-10-12T00:48:57;18.90;99.90
14008;DHT22;61651;45.508;12.232;2022-10-12T00:52:05;18.80;99.90
14008;DHT22;61651;45.508;12.232;2022-10-12T00:55:11;18.80;99.90
14008;DHT22;61651;45.508;12.232;2022-10-12T00:58:14;18.80;99.90
14008;DHT22;61651;45.508;12.232;2022-10-12T01:01:17;18.80;99.90
14008;DHT22;61651;45.508;12.232;2022-10-12T01:04:21;18.70;99.90
14008;DHT22;61651;45.508;12.232;2022-10-12T01:07:25;18.70;99.90
14008;DHT22;61651;45.508;12.232;2022-10-12T01:10:27;18.70;99.90
14008;DHT22;61651;45.508;12.232;2022-10-12T01:13:29;18.70;99.90
14008;DHT22;61651;45.508;12.232;2022-10-12T01:16:36;18.70;99.90
14008;DHT22;61651;45.508;12.232;2022-10-12T01:20:16;18.70;99.90
14008;DHT22;61651;45.508;12.232;2022-10-12T01:27:38;18.70;99.90
14008;DHT22;61651;45.508;12.232;2022-10-12T01:30:44;18.60;99.90
14008;DHT22;61651;45.508;12.232;2022-10-12T01:33:51;18.60;99.90
14008;DHT22;61651;45.508;12.232;2022-10-12T01:37:04;18.60;99.90
14008;DHT22;61651;45.508;12.232;2022-10-12T01:40:12;18.60;99.90
14008;DHT22;61651;45.508;12.232;2022-10-12T01:43:16;18.70;99.90
14008;DHT22;61651;45.508;12.232;2022-10-12T01:46:53;18.60;99.90
14008;DHT22;61651;45.508;12.232;2022-10-12T01:49:56;18.60;99.90
14008;DHT22;61651;45.508;12.232;2022-10-12T01:53:04;18.50;99.90
14008;DHT22;61651;45.508;12.232;2022-10-12T01:56:13;18.50;99.90
14008;DHT22;61651;45.508;12.232;2022-10-12T01:59:21;18.50;99.90
14008;DHT22;61651;45.508;12.232;2022-10-12T02:02:34;18.40;99.90
14008;DHT22;61651;45.508;12.232;2022-10-12T02:05:44;18.50;99.90
14008;DHT22;61651;45.508;12.232;2022-10-12T02:08:55;18.50;99.90
14008;DHT22;61651;45.508;12.232;2022-10-12T02:12:02;18.50;99.90
14008;DHT22;61651;45.508;12.232;2022-10-12T02:15:08;18.50;99.90
14008;DHT22;61651;45.508;12.232;2022-10-12T02:18:16;18.60;99.90
14008;DHT22;61651;45.508;12.232;2022-10-12T02:21:21;18.60;99.90
14008;DHT22;61651;45.508;12.232;2022-10-12T02:24:23;18.50;99.90
14008;DHT22;61651;45.508;12.232;2022-10-12T02:27:26;18.50;99.90
14008;DHT22;61651;45.508;12.232;2022-10-12T02:30:29;18.50;99.90
14008;DHT22;61651;45.508;12.232;2022-10-12T02:33:38;18.50;99.90
14008;DHT22;61651;45.508;12.232;2022-10-12T02:36:45;18.50;99.90
14008;DHT22;61651;45.508;12.232;2022-10-12T02:39:53;18.50;99.90
14008;DHT22;61651;45.508;12.232;2022-10-12T02:42:58;18.50;99.90
14008;DHT22;61651;45.508;12.232;2022-10-12T02:46:03;18.50;99.90
14008;DHT22;61651;45.508;12.232;2022-10-12T02:49:07;18.50;99.90
14008;DHT22;61651;45.508;12.232;2022-10-12T02:52:11;18.50;99.90
14008;DHT22;61651;45.508;12.232;2022-10-12T02:55:13;18.50;99.90
14008;DHT22;61651;45.508;12.232;2022-10-12T02:58:15;18.50;99.90
14008;DHT22;61651;45.508;12.232;2022-10-12T03:01:17;18.50;99.90
14008;DHT22;61651;45.508;12.232;2022-10-12T03:04:21;18.50;99.90
14008;DHT22;61651;45.508;12.232;2022-10-12T03:07:23;18.50;99.90
14008;DHT22;61651;45.508;12.232;2022-10-12T03:10:25;18.50;99.90
14008;DHT22;61651;45.508;12.232;2022-10-12T03:13:27;18.50;99.90
14008;DHT22;61651;45.508;12.232;2022-10-12T03:16:29;18.50;99.90
14008;DHT22;61651;45.508;12.232;2022-10-12T03:19:32;18.50;99.90
14008;DHT22;61651;45.508;12.232;2022-10-12T03:22:34;18.40;99.90
14008;DHT22;61651;45.508;12.232;2022-10-12T03:25:36;18.40;99.90
14008;DHT22;61651;45.508;12.232;2022-10-12T03:28:38;18.40;99.90
14008;DHT22;61651;45.508;12.232;2022-10-12T03:31:40;18.40;99.90
14008;DHT22;61651;45.508;12.232;2022-10-12T03:34:44;18.40;99.90
14008;DHT22;61651;45.508;12.232;2022-10-12T03:37:45;18.40;99.90
14008;DHT22;61651;45.508;12.232;2022-10-12T03:40:47;18.40;99.90
14008;DHT22;61651;45.508;12.232;2022-10-12T03:43:49;18.40;99.90
14008;DHT22;61651;45.508;12.232;2022-10-12T03:46:51;18.40;99.90
14008;DHT22;61651;45.508;12.232;2022-10-12T03:49:55;18.40;99.90
14008;DHT22;61651;45.508;12.232;2022-10-12T03:52:57;18.40;99.90
14008;DHT22;61651;45.508;12.232;2022-10-12T03:55:59;18.40;99.90
14008;DHT22;61651;45.508;12.232;2022-10-12T03:59:01;18.40;99.90
14008;DHT22;61651;45.508;12.232;2022-10-12T04:02:03;18.30;99.90
14008;DHT22;61651;45.508;12.232;2022-10-12T04:05:07;18.30;99.90
14008;DHT22;61651;45.508;12.232;2022-10-12T04:08:09;18.30;99.90
14008;DHT22;61651;45.508;12.232;2022-10-12T04:11:11;18.20;99.90
14008;DHT22;61651;45.508;12.232;2022-10-12T04:14:13;18.20;99.90
14008;DHT22;61651;45.508;12.232;2022-10-12T04:17:15;18.20;99.90
14008;DHT22;61651;45.508;12.232;2022-10-12T04:20:19;18.20;99.90
14008;DHT22;61651;45.508;12.232;2022-10-12T04:23:21;18.20;99.90
14008;DHT22;61651;45.508;12.232;2022-10-12T04:26:23;18.20;99.90
14008;DHT22;61651;45.508;12.232;2022-10-12T04:29:25;18.20;99.90
14008;DHT22;61651;45.508;12.232;2022-10-12T04:32:27;18.20;99.90
14008;DHT22;61651;45.508;12.232;2022-10-12T04:35:30;18.20;99.90
14008;DHT22;61651;45.508;12.232;2022-10-12T04:38:32;18.20;99.90
14008;DHT22;61651;45.508;12.232;2022-10-12T04:41:34;18.20;99.90
14008;DHT22;61651;45.508;12.232;2022-10-12T04:44:36;18.20;99.90
14008;DHT22;61651;45.508;12.232;2022-10-12T04:47:38;18.10;99.90
14008;DHT22;61651;45.508;12.232;2022-10-12T04:50:42;18.10;99.90
14008;DHT22;61651;45.508;12.232;2022-10-12T04:53:44;18.10;99.90
14008;DHT22;61651;45.508;12.232;2022-10-12T04:56:46;18.10;99.90
14008;DHT22;61651;45.508;12.232;2022-10-12T04:59:48;18.00;99.90
14008;DHT22;61651;45.508;12.232;2022-10-12T05:02:50;18.00;99.90
14008;DHT22;61651;45.508;12.232;2022-10-12T05:05:53;18.00;99.90
14008;DHT22;61651;45.508;12.232;2022-10-12T05:08:55;18.00;99.90
14008;DHT22;61651;45.508;12.232;2022-10-12T05:11:59;17.90;99.90
14008;DHT22;61651;45.508;12.232;2022-10-12T05:15:13;17.90;99.90
14008;DHT22;61651;45.508;12.232;2022-10-12T05:18:15;17.90;99.90
14008;DHT22;61651;45.508;12.232;2022-10-12T05:21:19;17.90;99.90
14008;DHT22;61651;45.508;12.232;2022-10-12T05:24:21;17.90;99.90
14008;DHT22;61651;45.508;12.232;2022-10-12T05:27:23;17.90;99.90
14008;DHT22;61651;45.508;12.232;2022-10-12T05:30:25;17.80;99.90
14008;DHT22;61651;45.508;12.232;2022-10-12T05:33:27;17.80;99.90
14008;DHT22;61651;45.508;12.232;2022-10-12T05:36:30;17.90;99.90
14008;DHT22;61651;45.508;12.232;2022-10-12T05:39:32;17.90;99.90
14008;DHT22;61651;45.508;12.232;2022-10-12T05:42:35;17.90;99.90
14008;DHT22;61651;45.508;12.232;2022-10-12T05:45:37;17.90;99.90
14008;DHT22;61651;45.508;12.232;2022-10-12T05:48:39;17.90;99.90
14008;DHT22;61651;45.508;12.232;2022-10-12T05:51:43;17.90;99.90
14008;DHT22;61651;45.508;12.232;2022-10-12T05:54:45;17.90;99.90
14008;DHT22;61651;45.508;12.232;2022-10-12T05:57:47;17.90;99.90
14008;DHT22;61651;45.508;12.232;2022-10-12T06:00:50;18.00;99.90
14008;DHT22;61651;45.508;12.232;2022-10-12T06:03:52;18.00;99.90
14008;DHT22;61651;45.508;12.232;2022-10-12T06:06:55;18.00;99.90
14008;DHT22;61651;45.508;12.232;2022-10-12T06:09:57;18.00;99.90
14008;DHT22;61651;45.508;12.232;2022-10-12T06:12:59;18.10;99.90
14008;DHT22;61651;45.508;12.232;2022-10-12T06:16:01;18.10;99.90
14008;DHT22;61651;45.508;12.232;2022-10-12T06:19:04;18.20;99.90
14008;DHT22;61651;45.508;12.232;2022-10-12T06:22:07;18.20;99.90
14008;DHT22;61651;45.508;12.232;2022-10-12T06:25:09;18.20;99.90
14008;DHT22;61651;45.508;12.232;2022-10-12T06:28:11;18.20;99.90
14008;DHT22;61651;45.508;12.232;2022-10-12T06:31:13;18.30;99.90
14008;DHT22;61651;45.508;12.232;2022-10-12T06:34:15;18.40;99.90
14008;DHT22;61651;45.508;12.232;2022-10-12T06:37:18;18.40;99.90
14008;DHT22;61651;45.508;12.232;2022-10-12T06:40:20;18.50;99.90
14008;DHT22;61651;45.508;12.232;2022-10-12T06:43:22;18.60;99.90
14008;DHT22;61651;45.508;12.232;2022-10-12T06:46:24;18.60;99.90
14008;DHT22;61651;45.508;12.232;2022-10-12T06:49:26;18.70;99.90
14008;DHT22;61651;45.508;12.232;2022-10-12T06:52:30;18.60;99.90
14008;DHT22;61651;45.508;12.232;2022-10-12T06:55:32;18.70;99.90
14008;DHT22;61651;45.508;12.232;2022-10-12T06:58:34;18.70;99.90
14008;DHT22;61651;45.508;12.232;2022-10-12T07:01:37;18.80;99.90
14008;DHT22;61651;45.508;12.232;2022-10-12T07:04:39;18.90;99.90
14008;DHT22;61651;45.508;12.232;2022-10-12T07:07:42;18.90;99.90
14008;DHT22;61651;45.508;12.232;2022-10-12T07:10:44;19.00;99.90
14008;DHT22;61651;45.508;12.232;2022-10-12T07:13:46;18.90;99.90
14008;DHT22;61651;45.508;12.232;2022-10-12T07:16:48;19.10;99.90
14008;DHT22;61651;45.508;12.232;2022-10-12T07:19:50;19.20;99.90
14008;DHT22;61651;45.508;12.232;2022-10-12T07:22:54;19.30;99.90
14008;DHT22;61651;45.508;12.232;2022-10-12T07:25:56;19.30;99.90
14008;DHT22;61651;45.508;12.232;2022-10-12T07:28:58;19.40;99.90
14008;DHT22;61651;45.508;12.232;2022-10-12T07:32:02;19.50;99.90
14008;DHT22;61651;45.508;12.232;2022-10-12T07:35:05;19.60;99.90
14008;DHT22;61651;45.508;12.232;2022-10-12T07:38:08;19.70;99.90
14008;DHT22;61651;45.508;12.232;2022-10-12T07:41:12;19.80;99.90
14008;DHT22;61651;45.508;12.232;2022-10-12T07:44:14;19.90;99.90
14008;DHT22;61651;45.508;12.232;2022-10-12T07:47:16;20.00;99.90
14008;DHT22;61651;45.508;12.232;2022-10-12T07:50:19;20.00;99.90
14008;DHT22;61651;45.508;12.232;2022-10-12T07:53:22;20.10;99.90
14008;DHT22;61651;45.508;12.232;2022-10-12T07:56:24;20.10;99.90
14008;DHT22;61651;45.508;12.232;2022-10-12T07:59:26;20.20;99.90
14008;DHT22;61651;45.508;12.232;2022-10-12T08:02:28;20.20;99.90
14008;DHT22;61651;45.508;12.232;2022-10-12T08:05:30;20.30;99.90
14008;DHT22;61651;45.508;12.232;2022-10-12T08:08:34;20.30;99.90
14008;DHT22;61651;45.508;12.232;2022-10-12T08:11:37;20.40;99.90
14008;DHT22;61651;45.508;12.232;2022-10-12T08:14:39;20.40;99.90
14008;DHT22;61651;45.508;12.232;2022-10-12T08:17:41;20.50;99.90
14008;DHT22;61651;45.508;12.232;2022-10-12T08:20:43;20.50;99.90
14008;DHT22;61651;45.508;12.232;2022-10-12T08:23:46;20.60;99.90
14008;DHT22;61651;45.508;12.232;2022-10-12T08:26:48;20.60;99.90
14008;DHT22;61651;45.508;12.232;2022-10-12T08:29:50;20.70;99.90
14008;DHT22;61651;45.508;12.232;2022-10-12T08:32:52;20.80;99.90
14008;DHT22;61651;45.508;12.232;2022-10-12T08:35:54;20.90;99.90
14008;DHT22;61651;45.508;12.232;2022-10-12T08:38:57;20.90;99.90
14008;DHT22;61651;45.508;12.232;2022-10-12T08:42:11;21.00;99.90
14008;DHT22;61651;45.508;12.232;2022-10-12T08:45:30;21.10;99.90
14008;DHT22;61651;45.508;12.232;2022-10-12T08:48:42;21.20;99.90
14008;DHT22;61651;45.508;12.232;2022-10-12T08:51:49;21.40;99.90
14008;DHT22;61651;45.508;12.232;2022-10-12T08:54:56;21.50;99.90
14008;DHT22;61651;45.508;12.232;2022-10-12T08:58:00;21.50;99.90
14008;DHT22;61651;45.508;12.232;2022-10-12T09:01:12;21.60;99.90
14008;DHT22;61651;45.508;12.232;2022-10-12T09:04:38;21.60;99.90
14008;DHT22;61651;45.508;12.232;2022-10-12T09:07:46;21.70;99.90
14008;DHT22;61651;45.508;12.232;2022-10-12T09:11:00;21.70;99.90
14008;DHT22;61651;45.508;12.232;2022-10-12T09:14:06;21.80;99.90
14008;DHT22;61651;45.508;12.232;2022-10-12T09:17:22;21.80;99.90
14008;DHT22;61651;45.508;12.232;2022-10-12T09:20:27;21.90;99.90
14008;DHT22;61651;45.508;12.232;2022-10-12T09:23:32;21.90;99.90
14008;DHT22;61651;45.508;12.232;2022-10-12T09:26:37;22.00;99.90
14008;DHT22;61651;45.508;12.232;2022-10-12T09:29:40;22.00;99.90
14008;DHT22;61651;45.508;12.232;2022-10-12T09:36:04;22.20;99.90
14008;DHT22;61651;45.508;12.232;2022-10-12T09:39:11;22.30;99.90
14008;DHT22;61651;45.508;12.232;2022-10-12T09:42:15;22.40;99.90
14008;DHT22;61651;45.508;12.232;2022-10-12T09:45:19;22.40;99.90
14008;DHT22;61651;45.508;12.232;2022-10-12T09:48:22;22.50;99.90
14008;DHT22;61651;45.508;12.232;2022-10-12T09:51:27;22.50;99.90
14008;DHT22;61651;45.508;12.232;2022-10-12T09:54:30;22.60;99.90
14008;DHT22;61651;45.508;12.232;2022-10-12T09:57:35;22.60;99.90
14008;DHT22;61651;45.508;12.232;2022-10-12T10:00:38;22.70;99.90
14008;DHT22;61651;45.508;12.232;2022-10-12T10:03:40;22.70;99.90
14008;DHT22;61651;45.508;12.232;2022-10-12T10:06:44;22.80;99.90
14008;DHT22;61651;45.508;12.232;2022-10-12T10:09:46;22.90;99.90
14008;DHT22;61651;45.508;12.232;2022-10-12T10:12:52;22.90;99.90
14008;DHT22;61651;45.508;12.232;2022-10-12T10:16:02;22.90;99.90
14008;DHT22;61651;45.508;12.232;2022-10-12T10:19:04;23.00;99.90
14008;DHT22;61651;45.508;12.232;2022-10-12T10:22:06;23.00;99.90
14008;DHT22;61651;45.508;12.232;2022-10-12T10:25:18;23.10;99.90
14008;DHT22;61651;45.508;12.232;2022-10-12T10:28:27;23.20;99.90
14008;DHT22;61651;45.508;12.232;2022-10-12T10:31:29;23.30;99.90
14008;DHT22;61651;45.508;12.232;2022-10-12T10:34:35;23.40;99.90
14008;DHT22;61651;45.508;12.232;2022-10-12T10:37:37;23.50;99.90
14008;DHT22;61651;45.508;12.232;2022-10-12T10:40:49;23.60;99.90
14008;DHT22;61651;45.508;12.232;2022-10-12T10:44:29;23.70;99.90
14008;DHT22;61651;45.508;12.232;2022-10-12T10:47:42;23.70;99.90
14008;DHT22;61651;45.508;12.232;2022-10-12T10:50:50;23.80;99.90
14008;DHT22;61651;45.508;12.232;2022-10-12T10:53:53;23.90;99.90
14008;DHT22;61651;45.508;12.232;2022-10-12T10:57:01;24.00;99.90
14008;DHT22;61651;45.508;12.232;2022-10-12T11:00:10;24.10;99.90
14008;DHT22;61651;45.508;12.232;2022-10-12T11:03:15;24.20;99.90
14008;DHT22;61651;45.508;12.232;2022-10-12T11:06:30;24.40;99.90
14008;DHT22;61651;45.508;12.232;2022-10-12T11:09:37;24.50;99.90
14008;DHT22;61651;45.508;12.232;2022-10-12T11:12:44;24.60;99.90
14008;DHT22;61651;45.508;12.232;2022-10-12T11:15:53;24.60;99.90
14008;DHT22;61651;45.508;12.232;2022-10-12T11:18:57;24.80;99.90
14008;DHT22;61651;45.508;12.232;2022-10-12T11:22:03;24.90;99.90
14008;DHT22;61651;45.508;12.232;2022-10-12T11:25:11;25.10;99.90
14008;DHT22;61651;45.508;12.232;2022-10-12T11:28:15;25.20;99.90
14008;DHT22;61651;45.508;12.232;2022-10-12T11:31:22;25.30;99.90
14008;DHT22;61651;45.508;12.232;2022-10-12T11:34:26;25.40;99.90
14008;DHT22;61651;45.508;12.232;2022-10-12T11:37:35;25.50;99.90
14008;DHT22;61651;45.508;12.232;2022-10-12T11:40:44;25.50;99.90
14008;DHT22;61651;45.508;12.232;2022-10-12T11:43:51;25.60;99.90
14008;DHT22;61651;45.508;12.232;2022-10-12T11:47:01;25.70;99.90
14008;DHT22;61651;45.508;12.232;2022-10-12T11:50:06;25.80;99.90
14008;DHT22;61651;45.508;12.232;2022-10-12T11:53:20;25.90;99.90
14008;DHT22;61651;45.508;12.232;2022-10-12T11:56:26;25.90;99.90
14008;DHT22;61651;45.508;12.232;2022-10-12T11:59:33;25.90;99.90
14008;DHT22;61651;45.508;12.232;2022-10-12T12:02:41;26.20;99.90
14008;DHT22;61651;45.508;12.232;2022-10-12T12:05:45;26.50;99.90
14008;DHT22;61651;45.508;12.232;2022-10-12T12:08:56;26.70;99.90
14008;DHT22;61651;45.508;12.232;2022-10-12T12:12:15;27.00;99.30
14008;DHT22;61651;45.508;12.232;2022-10-12T12:15:21;27.20;99.90
14008;DHT22;61651;45.508;12.232;2022-10-12T12:18:26;27.10;99.90
14008;DHT22;61651;45.508;12.232;2022-10-12T12:21:29;27.10;99.90
14008;DHT22;61651;45.508;12.232;2022-10-12T12:24:31;27.20;99.90
14008;DHT22;61651;45.508;12.232;2022-10-12T12:27:36;27.30;99.80
14008;DHT22;61651;45.508;12.232;2022-10-12T12:30:39;27.30;99.80
14008;DHT22;61651;45.508;12.232;2022-10-12T12:33:45;27.50;99.10
14008;DHT22;61651;45.508;12.232;2022-10-12T12:36:48;27.70;99.60
14008;DHT22;61651;45.508;12.232;2022-10-12T12:39:53;27.80;99.20
14008;DHT22;61651;45.508;12.232;2022-10-12T12:43:21;28.00;99.60
14008;DHT22;61651;45.508;12.232;2022-10-12T12:50:31;28.10;98.10
14008;DHT22;61651;45.508;12.232;2022-10-12T12:53:36;28.30;99.10
14008;DHT22;61651;45.508;12.232;2022-10-12T12:56:46;28.40;98.50
14008;DHT22;61651;45.508;12.232;2022-10-12T13:00:15;28.10;97.20
14008;DHT22;61651;45.508;12.232;2022-10-12T13:03:46;28.00;97.60
14008;DHT22;61651;45.508;12.232;2022-10-12T13:07:28;28.30;98.70
14008;DHT22;61651;45.508;12.232;2022-10-12T13:10:46;28.40;98.10
14008;DHT22;61651;45.508;12.232;2022-10-12T13:14:00;28.50;98.30
14008;DHT22;61651;45.508;12.232;2022-10-12T13:17:42;28.60;98.50
14008;DHT22;61651;45.508;12.232;2022-10-12T13:20:49;28.80;96.60
14008;DHT22;61651;45.508;12.232;2022-10-12T13:23:57;28.90;96.90
14008;DHT22;61651;45.508;12.232;2022-10-12T13:27:07;29.10;97.40
14008;DHT22;61651;45.508;12.232;2022-10-12T13:30:19;29.10;95.80
14008;DHT22;61651;45.508;12.232;2022-10-12T13:33:26;29.10;95.90
14008;DHT22;61651;45.508;12.232;2022-10-12T13:36:31;28.90;96.90
14008;DHT22;61651;45.508;12.232;2022-10-12T13:39:39;28.90;97.00
14008;DHT22;61651;45.508;12.232;2022-10-12T13:42:43;29.30;97.50
14008;DHT22;61651;45.508;12.232;2022-10-12T13:45:45;29.40;97.20
14008;DHT22;61651;45.508;12.232;2022-10-12T13:48:47;29.50;97.40
14008;DHT22;61651;45.508;12.232;2022-10-12T13:51:51;29.40;97.00
14008;DHT22;61651;45.508;12.232;2022-10-12T13:54:55;29.40;96.80
14008;DHT22;61651;45.508;12.232;2022-10-12T13:57:57;29.20;96.60
14008;DHT22;61651;45.508;12.232;2022-10-12T14:00:59;29.00;96.20
14008;DHT22;61651;45.508;12.232;2022-10-12T14:04:04;28.80;96.50
14008;DHT22;61651;45.508;12.232;2022-10-12T14:07:16;28.60;97.00
14008;DHT22;61651;45.508;12.232;2022-10-12T14:10:25;28.50;97.40
14008;DHT22;61651;45.508;12.232;2022-10-12T14:13:28;28.30;96.30
14008;DHT22;61651;45.508;12.232;2022-10-12T14:16:31;28.10;96.90
14008;DHT22;61651;45.508;12.232;2022-10-12T14:19:41;28.10;97.40
14008;DHT22;61651;45.508;12.232;2022-10-12T14:22:46;28.00;97.50
14008;DHT22;61651;45.508;12.232;2022-10-12T14:25:52;27.80;97.50
14008;DHT22;61651;45.508;12.232;2022-10-12T14:28:56;27.60;97.40
14008;DHT22;61651;45.508;12.232;2022-10-12T14:31:59;27.50;97.70
14008;DHT22;61651;45.508;12.232;2022-10-12T14:38:37;27.20;97.40
14008;DHT22;61651;45.508;12.232;2022-10-12T14:41:49;27.20;97.60
14008;DHT22;61651;45.508;12.232;2022-10-12T14:44:51;27.00;97.70
14008;DHT22;61651;45.508;12.232;2022-10-12T14:47:54;26.90;97.90
14008;DHT22;61651;45.508;12.232;2022-10-12T14:50:56;26.70;98.10
14008;DHT22;61651;45.508;12.232;2022-10-12T14:53:58;26.50;98.40
14008;DHT22;61651;45.508;12.232;2022-10-12T14:57:10;26.40;98.50
14008;DHT22;61651;45.508;12.232;2022-10-12T15:00:13;26.40;98.50
14008;DHT22;61651;45.508;12.232;2022-10-12T15:03:16;26.30;98.80
14008;DHT22;61651;45.508;12.232;2022-10-12T15:06:19;26.20;99.20
14008;DHT22;61651;45.508;12.232;2022-10-12T15:09:21;26.10;99.50
14008;DHT22;61651;45.508;12.232;2022-10-12T15:12:25;26.00;99.60
14008;DHT22;61651;45.508;12.232;2022-10-12T15:15:36;25.80;99.80
14008;DHT22;61651;45.508;12.232;2022-10-12T15:18:38;25.60;99.90
14008;DHT22;61651;45.508;12.232;2022-10-12T15:21:40;25.60;99.90
14008;DHT22;61651;45.508;12.232;2022-10-12T15:24:43;25.50;99.90
14008;DHT22;61651;45.508;12.232;2022-10-12T15:27:46;25.40;99.90
14008;DHT22;61651;45.508;12.232;2022-10-12T15:30:49;25.30;99.90
14008;DHT22;61651;45.508;12.232;2022-10-12T15:33:51;25.10;99.90
14008;DHT22;61651;45.508;12.232;2022-10-12T15:36:54;25.00;99.90
14008;DHT22;61651;45.508;12.232;2022-10-12T15:39:56;24.90;99.90
14008;DHT22;61651;45.508;12.232;2022-10-12T15:43:00;24.80;99.90
14008;DHT22;61651;45.508;12.232;2022-10-12T15:46:02;24.60;99.90
14008;DHT22;61651;45.508;12.232;2022-10-12T15:49:04;24.50;99.90
14008;DHT22;61651;45.508;12.232;2022-10-12T15:52:08;24.50;99.90
14008;DHT22;61651;45.508;12.232;2022-10-12T15:55:17;24.40;99.90
14008;DHT22;61651;45.508;12.232;2022-10-12T15:58:21;24.40;99.90
14008;DHT22;61651;45.508;12.232;2022-10-12T16:01:23;24.30;99.90
14008;DHT22;61651;45.508;12.232;2022-10-12T16:04:25;24.20;99.90
14008;DHT22;61651;45.508;12.232;2022-10-12T16:07:27;24.10;99.90
14008;DHT22;61651;45.508;12.232;2022-10-12T16:10:32;24.00;99.90
14008;DHT22;61651;45.508;12.232;2022-10-12T16:13:40;23.90;99.90
14008;DHT22;61651;45.508;12.232;2022-10-12T16:16:43;23.80;99.90
14008;DHT22;61651;45.508;12.232;2022-10-12T16:19:45;23.70;99.90
14008;DHT22;61651;45.508;12.232;2022-10-12T16:22:48;23.50;99.90
14008;DHT22;61651;45.508;12.232;2022-10-12T16:25:53;23.40;99.90
14008;DHT22;61651;45.508;12.232;2022-10-12T16:28:56;23.30;99.90
14008;DHT22;61651;45.508;12.232;2022-10-12T16:31:58;23.20;99.90
14008;DHT22;61651;45.508;12.232;2022-10-12T16:35:01;23.10;99.90
14008;DHT22;61651;45.508;12.232;2022-10-12T16:38:03;23.00;99.90
14008;DHT22;61651;45.508;12.232;2022-10-12T16:41:09;22.90;99.90
14008;DHT22;61651;45.508;12.232;2022-10-12T16:44:13;22.90;99.90
14008;DHT22;61651;45.508;12.232;2022-10-12T16:47:15;22.80;99.90
14008;DHT22;61651;45.508;12.232;2022-10-12T16:50:18;22.70;99.90
14008;DHT22;61651;45.508;12.232;2022-10-12T16:53:20;22.60;99.90
14008;DHT22;61651;45.508;12.232;2022-10-12T16:56:22;22.60;99.90
14008;DHT22;61651;45.508;12.232;2022-10-12T16:59:26;22.50;99.90
14008;DHT22;61651;45.508;12.232;2022-10-12T17:02:28;22.40;99.90
14008;DHT22;61651;45.508;12.232;2022-10-12T17:05:30;22.40;99.90
14008;DHT22;61651;45.508;12.232;2022-10-12T17:08:33;22.30;99.90
14008;DHT22;61651;45.508;12.232;2022-10-12T17:11:38;22.30;99.90
14008;DHT22;61651;45.508;12.232;2022-10-12T17:14:41;22.20;99.90
14008;DHT22;61651;45.508;12.232;2022-10-12T17:17:43;22.10;99.90
14008;DHT22;61651;45.508;12.232;2022-10-12T17:20:45;22.10;99.90
14008;DHT22;61651;45.508;12.232;2022-10-12T17:23:48;22.00;99.90
14008;DHT22;61651;45.508;12.232;2022-10-12T17:26:50;22.00;99.90
14008;DHT22;61651;45.508;12.232;2022-10-12T17:29:54;21.90;99.90
14008;DHT22;61651;45.508;12.232;2022-10-12T17:32:56;21.80;99.90
14008;DHT22;61651;45.508;12.232;2022-10-12T17:35:58;21.70;99.90
14008;DHT22;61651;45.508;12.232;2022-10-12T17:39:00;21.70;99.90
14008;DHT22;61651;45.508;12.232;2022-10-12T17:42:02;21.60;99.90
14008;DHT22;61651;45.508;12.232;2022-10-12T17:45:07;21.60;99.90
14008;DHT22;61651;45.508;12.232;2022-10-12T17:48:09;21.50;99.90
14008;DHT22;61651;45.508;12.232;2022-10-12T17:51:12;21.50;99.90
14008;DHT22;61651;45.508;12.232;2022-10-12T17:54:16;21.40;99.90
14008;DHT22;61651;45.508;12.232;2022-10-12T17:57:17;21.40;99.90
14008;DHT22;61651;45.508;12.232;2022-10-12T18:00:21;21.30;99.90
14008;DHT22;61651;45.508;12.232;2022-10-12T18:03:23;21.20;99.90
14008;DHT22;61651;45.508;12.232;2022-10-12T18:06:29;21.20;99.90
14008;DHT22;61651;45.508;12.232;2022-10-12T18:09:31;21.10;99.90
14008;DHT22;61651;45.508;12.232;2022-10-12T18:12:33;21.10;99.90
14008;DHT22;61651;45.508;12.232;2022-10-12T18:15:41;21.10;99.90
14008;DHT22;61651;45.508;12.232;2022-10-12T18:18:44;21.00;99.90
14008;DHT22;61651;45.508;12.232;2022-10-12T18:21:50;21.00;99.90
14008;DHT22;61651;45.508;12.232;2022-10-12T18:24:52;20.90;99.90
14008;DHT22;61651;45.508;12.232;2022-10-12T18:27:53;20.90;99.90
14008;DHT22;61651;45.508;12.232;2022-10-12T18:30:57;20.90;99.90
14008;DHT22;61651;45.508;12.232;2022-10-12T18:33:59;20.90;99.90
14008;DHT22;61651;45.508;12.232;2022-10-12T18:37:01;20.80;99.90
14008;DHT22;61651;45.508;12.232;2022-10-12T18:40:04;20.80;99.90
14008;DHT22;61651;45.508;12.232;2022-10-12T18:43:06;20.80;99.90
14008;DHT22;61651;45.508;12.232;2022-10-12T18:46:10;20.80;99.90
14008;DHT22;61651;45.508;12.232;2022-10-12T18:49:13;20.70;99.90
14008;DHT22;61651;45.508;12.232;2022-10-12T18:52:15;20.70;99.90
14008;DHT22;61651;45.508;12.232;2022-10-12T18:55:17;20.60;99.90
14008;DHT22;61651;45.508;12.232;2022-10-12T18:58:19;20.60;99.90
14008;DHT22;61651;45.508;12.232;2022-10-12T19:01:23;20.60;99.90
14008;DHT22;61651;45.508;12.232;2022-10-12T19:04:25;20.60;99.90
14008;DHT22;61651;45.508;12.232;2022-10-12T19:07:28;20.50;99.90
14008;DHT22;61651;45.508;12.232;2022-10-12T19:10:30;20.50;99.90
14008;DHT22;61651;45.508;12.232;2022-10-12T19:13:32;20.50;99.90
14008;DHT22;61651;45.508;12.232;2022-10-12T19:16:36;20.50;99.90
14008;DHT22;61651;45.508;12.232;2022-10-12T19:19:38;20.40;99.90
14008;DHT22;61651;45.508;12.232;2022-10-12T19:22:40;20.40;99.90